Weather observations for the past three days for
Fort Morgan Municipal Airport
| Date | Time (mdt) | Wind (mph) | Vis. (mi.) | Weather | Sky Cond. | Temperature (ºF) | Relative Humidity | Wind Chill (°F) | Heat Index (°F) | Pressure | Precipitation (in) | ||||||
|---|---|---|---|---|---|---|---|---|---|---|---|---|---|---|---|---|---|
| Air | Dwpt | 6 hour | altimeter (in) | sea level (mb) | 1 hr | 3 hr | 6 hr | ||||||||||
| Max. | Min. | ||||||||||||||||
| 02 | 13:55 | Vrbl 7 | 10.00 | Fair | CLR | 69.8 | 15.8 | 12% | 30.09 | 0.0 | |||||||
| 02 | 13:35 | Vrbl 5 G 13 | 10.00 | Fair | CLR | 68 | 15.8 | 13% | 30.1 | 0.0 | |||||||
| 02 | 13:15 | Vrbl 6 G 13 | 10.00 | Fair | CLR | 68 | 19.4 | 16% | 30.11 | 0.0 | |||||||
| 02 | 12:55 | SW 8 | 10.00 | Fair | CLR | 66.2 | 19.4 | 17% | 30.12 | 0.0 | |||||||
| 02 | 12:35 | Vrbl 5 G 14 | 10.00 | Fair | CLR | 66.2 | 21.2 | 18% | 30.13 | 0.0 | |||||||
| 02 | 12:15 | Calm | 10.00 | Fair | CLR | 64.4 | 21.2 | 19% | 30.14 | 0.0 | |||||||
| 02 | 11:55 | Calm | 10.00 | Fair | CLR | 64.4 | 21.2 | 19% | 30.14 | 0.0 | |||||||
| 02 | 11:35 | SW 5 G 15 | 10.00 | Fair | CLR | 64.4 | 23 | 21% | 30.15 | 0.0 | |||||||
| 02 | 11:15 | W 8 | 10.00 | Fair | CLR | 62.6 | 24.8 | 24% | 30.16 | 0.0 | |||||||
| 02 | 10:55 | Vrbl 7 | 10.00 | Fair | CLR | 60.8 | 26.6 | 27% | 30.16 | 0.0 | |||||||
| 02 | 10:35 | W 6 G 13 | 10.00 | Fair | CLR | 59 | 26.6 | 29% | 30.17 | 0.0 | |||||||
| 02 | 10:15 | W 10 | 10.00 | Fair | CLR | 57.2 | 26.6 | 31% | 30.17 | 0.0 | |||||||
| 02 | 09:55 | W 8 | 10.00 | Fair | CLR | 53.6 | 26.6 | 35% | 30.17 | 0.0 | |||||||
| 02 | 09:35 | W 9 | 10.00 | Fair | CLR | 51.8 | 26.6 | 38% | 30.18 | 0.0 | |||||||
| 02 | 09:15 | W 10 | 10.00 | Fair | CLR | 48.2 | 26.6 | 43% | 44 | 30.18 | 0.0 | ||||||
| 02 | 08:55 | W 9 | 10.00 | Fair | CLR | 46.4 | 26.6 | 46% | 42 | 30.18 | 0.0 | ||||||
| 02 | 08:35 | SW 10 | 10.00 | Fair | CLR | 44.6 | 26.6 | 49% | 40 | 30.19 | 0.0 | ||||||
| 02 | 08:15 | SW 8 | 10.00 | Fair | CLR | 42.8 | 28.4 | 57% | 39 | 30.19 | 0.0 | ||||||
| 02 | 07:55 | SW 7 | 10.00 | Fair | CLR | 41 | 28.4 | 61% | 37 | 30.19 | 0.0 | ||||||
| 02 | 07:35 | W 7 | 10.00 | Fair | CLR | 39.2 | 26.6 | 61% | 35 | 30.19 | 0.0 | ||||||
| 02 | 07:15 | W 6 | 10.00 | Fair | CLR | 35.6 | 26.6 | 70% | 31 | 30.18 | 0.0 | ||||||
| 02 | 06:55 | W 6 | 10.00 | Fair | CLR | 33.8 | 26.6 | 75% | 29 | 30.18 | 0.0 | ||||||
| 02 | 06:35 | W 8 | 10.00 | Fair | CLR | 32 | 24.8 | 75% | 25 | 30.18 | 0.0 | ||||||
| 02 | 06:15 | W 6 | 10.00 | Fair | CLR | 30.2 | 24.8 | 80% | 25 | 30.17 | 0.0 | ||||||
| 02 | 05:55 | W 6 | 10.00 | Fair | CLR | 28.4 | 23 | 80% | 23 | 30.17 | 0.0 | ||||||
| 02 | 05:35 | N 5 | 10.00 | Fair | CLR | 30.2 | 24.8 | 80% | 26 | 30.17 | 0.0 | ||||||
| 02 | 05:15 | N 6 | 10.00 | Fair | CLR | 30.2 | 24.8 | 80% | 25 | 30.16 | 0.0 | ||||||
| 02 | 04:55 | N 8 | 10.00 | Fair | CLR | 32 | 24.8 | 75% | 25 | 30.16 | 0.0 | ||||||
| 02 | 04:35 | N 12 | 10.00 | Fair | CLR | 32 | 24.8 | 75% | 24 | 30.16 | 0.0 | ||||||
| 02 | 04:15 | N 12 | 10.00 | Fair | CLR | 32 | 24.8 | 75% | 24 | 30.16 | 0.0 | ||||||
| 02 | 03:55 | N 9 | 10.00 | Fair | CLR | 32 | 24.8 | 75% | 25 | 30.16 | 0.0 | ||||||
| 02 | 03:35 | N 12 | 10.00 | Fair | CLR | 33.8 | 24.8 | 70% | 26 | 30.15 | 0.0 | ||||||
| 02 | 03:15 | N 12 | 10.00 | Fair | CLR | 33.8 | 24.8 | 70% | 26 | 30.16 | 0.0 | ||||||
| 02 | 02:55 | N 9 | 10.00 | Fair | CLR | 32 | 24.8 | 75% | 25 | 30.16 | 0.0 | ||||||
| 02 | 02:35 | N 8 | 10.00 | Fair | CLR | 33.8 | 24.8 | 70% | 28 | 30.16 | 0.0 | ||||||
| 02 | 02:15 | N 9 | 10.00 | Fair | CLR | 35.6 | 23 | 60% | 29 | 30.16 | 0.0 | ||||||
| 02 | 01:55 | N 12 | 10.00 | Fair | CLR | 35.6 | 23 | 60% | 28 | 30.16 | 0.0 | ||||||
| 02 | 01:15 | NE 10 | 10.00 | Fair | CLR | 35.6 | 23 | 60% | 29 | 30.16 | 0.0 | ||||||
| 02 | 00:55 | NE 10 | 10.00 | Fair | CLR | 35.6 | 21.2 | 56% | 29 | 30.16 | 0.0 | ||||||
| 02 | 00:35 | NE 9 | 10.00 | Fair | CLR | 37.4 | 21.2 | 52% | 31 | 30.16 | 0.0 | ||||||
| 02 | 00:15 | NE 9 | 10.00 | Fair | CLR | 39.2 | 21.2 | 48% | 34 | 30.16 | 0.0 | ||||||
| 01 | 23:55 | N 12 | 10.00 | Fair | CLR | 41 | 21.2 | 45% | 35 | 30.15 | 0.0 | ||||||
| 01 | 23:35 | N 12 | 10.00 | Fair | CLR | 42.8 | 21.2 | 42% | 37 | 30.15 | 0.0 | ||||||
| 01 | 23:15 | N 12 | 10.00 | Fair | CLR | 44.6 | 19.4 | 37% | 39 | 30.14 | 0.0 | ||||||
| 01 | 22:55 | N 10 | 10.00 | Fair | CLR | 44.6 | 19.4 | 37% | 40 | 30.14 | 0.0 | ||||||
| 01 | 22:35 | N 7 | 10.00 | Fair | CLR | 44.6 | 19.4 | 37% | 41 | 30.13 | 0.0 | ||||||
| 01 | 22:15 | N 9 | 10.00 | Fair | CLR | 44.6 | 19.4 | 37% | 40 | 30.13 | 0.0 | ||||||
| 01 | 21:55 | N 8 | 10.00 | Fair | CLR | 46.4 | 19.4 | 34% | 43 | 30.13 | 0.0 | ||||||
| 01 | 21:35 | N 8 | 10.00 | Fair | CLR | 46.4 | 19.4 | 34% | 43 | 30.12 | 0.0 | ||||||
| 01 | 21:15 | N 7 | 10.00 | Fair | CLR | 46.4 | 19.4 | 34% | 43 | 30.12 | 0.0 | ||||||
| 01 | 20:55 | N 8 | 10.00 | Fair | CLR | 46.4 | 19.4 | 34% | 43 | 30.11 | 0.0 | ||||||
| 01 | 20:35 | N 8 | 10.00 | Fair | CLR | 48.2 | 19.4 | 32% | 45 | 30.1 | 0.0 | ||||||
| 01 | 20:15 | N 8 | 10.00 | A Few Clouds | FEW100 | 50 | 19.4 | 30% | 47 | 30.09 | 0.0 | ||||||
| 01 | 19:55 | N 8 | 10.00 | Mostly Cloudy | BKN100 | 51.8 | 17.6 | 26% | 30.08 | 0.0 | |||||||
| 01 | 19:35 | NE 10 | 10.00 | Mostly Cloudy | BKN110 | 57.2 | 17.6 | 21% | 30.08 | 0.0 | |||||||
| 01 | 19:15 | N 12 G 18 | 10.00 | Partly Cloudy | SCT110 | 59 | 17.6 | 20% | 30.07 | 0.0 | |||||||
| 01 | 18:55 | N 12 | 10.00 | Fair | CLR | 60.8 | 17.6 | 19% | 30.07 | 0.0 | |||||||
| 01 | 18:35 | N 17 | 10.00 | Fair | CLR | 62.6 | 15.8 | 16% | 30.06 | 0.0 | |||||||
| 01 | 18:15 | N 16 | 10.00 | Fair | CLR | 62.6 | 15.8 | 16% | 30.06 | 0.0 | |||||||
| 01 | 17:55 | N 17 G 24 | 10.00 | Fair | CLR | 64.4 | 14 | 14% | 30.06 | 0.0 | |||||||
| 01 | 17:35 | N 17 G 24 | 10.00 | A Few Clouds | FEW110 | 64.4 | 14 | 14% | 30.06 | 0.0 | |||||||
| 01 | 17:15 | N 15 G 38 | 10.00 | A Few Clouds | FEW110 | 62.6 | 14 | 15% | 30.05 | 0.0 | |||||||
| 01 | 16:55 | NW 15 G 26 | 10.00 | A Few Clouds | FEW110 | 62.6 | 14 | 15% | 30.06 | 0.0 | |||||||
| 01 | 16:35 | NW 10 G 20 | 10.00 | Partly Cloudy | SCT110 | 62.6 | 14 | 15% | 30.05 | 0.0 | |||||||
| 01 | 16:15 | NW 10 | 10.00 | Mostly Cloudy | BKN110 | 64.4 | 14 | 14% | 30.05 | 0.0 | |||||||
| 01 | 15:55 | NW 13 | 10.00 | Partly Cloudy | SCT110 | 64.4 | 15.8 | 15% | 30.05 | 0.0 | |||||||
| 01 | 15:35 | NW 16 | 10.00 | Mostly Cloudy | BKN110 | 64.4 | 15.8 | 15% | 30.06 | 0.0 | |||||||
| 01 | 15:15 | N 15 G 22 | 10.00 | Mostly Cloudy | BKN100 | 64.4 | 15.8 | 15% | 30.07 | 0.0 | |||||||
| 01 | 14:55 | N 12 G 23 | 10.00 | Mostly Cloudy | BKN100 | 64.4 | 15.8 | 15% | 30.08 | 0.0 | |||||||
| 01 | 14:35 | NW 16 | 10.00 | Partly Cloudy | SCT100 | 64.4 | 15.8 | 15% | 30.08 | 0.0 | |||||||
| 01 | 14:15 | NW 14 G 21 | 10.00 | A Few Clouds | FEW100 | 62.6 | 15.8 | 16% | 30.08 | 0.0 | |||||||
| 01 | 13:55 | Vrbl 7 G 24 | 10.00 | Partly Cloudy | SCT100 | 64.4 | 15.8 | 15% | 30.09 | 0.0 | |||||||
| 01 | 13:35 | N 7 G 16 | 10.00 | Mostly Cloudy | BKN095 | 60.8 | 15.8 | 17% | 30.09 | 0.0 | |||||||
| 01 | 13:15 | NW 14 G 22 | 10.00 | Partly Cloudy | SCT095 | 60.8 | 17.6 | 19% | 30.09 | 0.0 | |||||||
| 01 | 12:55 | W 9 G 20 | 10.00 | Fair | CLR | 62.6 | 17.6 | 17% | 30.1 | 0.0 | |||||||
| 01 | 12:35 | Vrbl 5 G 16 | 10.00 | Fair | CLR | 60.8 | 17.6 | 19% | 30.11 | 0.0 | |||||||
| 01 | 12:15 | W 13 G 18 | 10.00 | Fair | CLR | 60.8 | 17.6 | 19% | 30.11 | 0.0 | |||||||
| 01 | 11:55 | Vrbl 6 G 14 | 10.00 | Fair | CLR | 59 | 17.6 | 20% | 30.12 | 0.0 | |||||||
| 01 | 11:35 | Vrbl 7 G 18 | 10.00 | Fair | CLR | 57.2 | 17.6 | 21% | 30.13 | 0.0 | |||||||
| 01 | 11:15 | NW 9 G 18 | 10.00 | Fair | CLR | 57.2 | 19.4 | 23% | 30.13 | 0.0 | |||||||
| 01 | 10:55 | W 10 G 18 | 10.00 | Fair | CLR | 57.2 | 21.2 | 25% | 30.13 | 0.0 | |||||||
| 01 | 10:35 | W 12 G 25 | 10.00 | Fair | CLR | 57.2 | 19.4 | 23% | 30.14 | 0.0 | |||||||
| 01 | 10:15 | W 12 | 10.00 | Fair | CLR | 53.6 | 28.4 | 38% | 30.14 | 0.0 | |||||||
| 01 | 09:55 | SW 13 G 18 | 10.00 | Fair | CLR | 51.8 | 30.2 | 44% | 30.14 | 0.0 | |||||||
| 01 | 09:35 | Vrbl 7 G 17 | 10.00 | Fair | CLR | 50 | 30.2 | 47% | 48 | 30.14 | 0.0 | ||||||
| 01 | 09:15 | W 14 | 10.00 | Fair | CLR | 48.2 | 32 | 54% | 43 | 30.14 | 0.0 | ||||||
| 01 | 08:55 | W 14 | 10.00 | Fair | CLR | 46.4 | 32 | 57% | 41 | 30.14 | 0.0 | ||||||
| 01 | 08:35 | W 15 | 10.00 | Fair | CLR | 44.6 | 32 | 61% | 38 | 30.14 | 0.0 | ||||||
| 01 | 08:15 | W 15 | 10.00 | Fair | CLR | 41 | 32 | 70% | 34 | 30.14 | 0.0 | ||||||
| 01 | 07:55 | W 13 | 10.00 | Fair | CLR | 39.2 | 35.6 | 87% | 32 | 30.14 | 0.0 | ||||||
| 01 | 07:35 | W 12 | 10.00 | Fair | CLR | 37.4 | 33.8 | 87% | 30 | 30.14 | 0.0 | ||||||
| 01 | 07:15 | W 10 | 10.00 | Fair | CLR | 35.6 | 33.8 | 93% | 29 | 30.14 | 0.0 | ||||||
| 01 | 06:55 | W 10 | 6.00 | Fog/Mist | CLR | 32 | 32 | 100% | 24 | 30.13 | 0.0 | ||||||
| 01 | 06:35 | W 9 | 6.00 | Fog/Mist | CLR | 30.2 | 30.2 | 100% | 23 | 30.13 | 0.0 | ||||||
| 01 | 06:15 | W 9 | 5.00 | Fog/Mist | CLR | 28.4 | 28.4 | 100% | 20 | 30.13 | 0.0 | ||||||
| 01 | 05:55 | W 12 | 6.00 | Fog/Mist | CLR | 30.2 | 30.2 | 100% | 21 | 30.13 | 0.0 | ||||||
| 01 | 05:35 | W 9 | 6.00 | Fog/Mist | CLR | 30.2 | 30.2 | 100% | 23 | 30.13 | 0.0 | ||||||
| 01 | 05:15 | W 10 | 8.00 | Fair | CLR | 30.2 | 30.2 | 100% | 22 | 30.13 | 0.0 | ||||||
| 01 | 04:55 | W 9 | 9.00 | Fair | CLR | 32 | 32 | 100% | 25 | 30.13 | 0.0 | ||||||
| 01 | 04:35 | W 8 | 9.00 | Fair | CLR | 32 | 32 | 100% | 25 | 30.13 | 0.0 | ||||||
| 01 | 04:15 | W 7 | 10.00 | Fair | CLR | 30.2 | 30.2 | 100% | 24 | 30.13 | 0.0 | ||||||
| 01 | 03:55 | W 8 | 10.00 | Fair | CLR | 32 | 32 | 100% | 25 | 30.13 | 0.0 | ||||||
| 01 | 03:35 | W 7 | 10.00 | Fair | CLR | 32 | 32 | 100% | 26 | 30.13 | 0.0 | ||||||
| 01 | 03:15 | W 8 | 10.00 | Fair | CLR | 33.8 | 33.8 | 100% | 28 | 30.14 | 0.0 | ||||||
| 01 | 02:55 | W 8 | 10.00 | Fair | CLR | 33.8 | 33.8 | 100% | 28 | 30.14 | 0.0 | ||||||
| 01 | 02:35 | W 7 | 10.00 | Fair | CLR | 33.8 | 33.8 | 100% | 28 | 30.14 | 0.0 | ||||||
| 01 | 02:15 | W 8 | 10.00 | Fair | CLR | 35.6 | 33.8 | 93% | 30 | 30.15 | 0.0 | ||||||
| 01 | 01:55 | W 7 | 10.00 | Fair | CLR | 35.6 | 35.6 | 100% | 31 | 30.15 | 0.0 | ||||||
| 01 | 01:35 | W 7 | 10.00 | Fair | CLR | 33.8 | 33.8 | 100% | 28 | 30.15 | 0.0 | ||||||
| 01 | 01:15 | W 6 | 10.00 | Fair | CLR | 35.6 | 33.8 | 93% | 31 | 30.15 | 0.0 | ||||||
| 01 | 00:55 | W 6 | 10.00 | Fair | CLR | 35.6 | 35.6 | 100% | 31 | 30.16 | 0.0 | ||||||
| 01 | 00:35 | W 5 | 10.00 | Fair | CLR | 35.6 | 33.8 | 93% | 32 | 30.16 | 0.0 | ||||||
| 01 | 00:15 | W 8 | 10.00 | Fair | CLR | 35.6 | 33.8 | 93% | 30 | 30.16 | 0.0 | ||||||
| 30 | 23:55 | W 9 | 10.00 | Fair | CLR | 37.4 | 35.6 | 93% | 31 | 30.16 | 0.0 | ||||||
| 30 | 23:35 | W 10 | 10.00 | Fair | CLR | 37.4 | 33.8 | 87% | 31 | 30.16 | 0.0 | ||||||
| 30 | 22:55 | W 8 | 10.00 | Fair | CLR | 37.4 | 33.8 | 87% | 32 | 30.16 | 0.0 | ||||||
| 30 | 22:35 | W 7 | 10.00 | Fair | CLR | 39.2 | 33.8 | 81% | 35 | 30.16 | 0.0 | ||||||
| 30 | 22:15 | W 6 | 10.00 | A Few Clouds | FEW075 | 37.4 | 33.8 | 87% | 33 | 30.15 | 0.0 | ||||||
| 30 | 21:55 | SW 6 | 10.00 | Fair | CLR | 41 | 33.8 | 76% | 38 | 30.15 | 0.0 | ||||||
| 30 | 21:35 | SW 5 | 10.00 | Fair | CLR | 41 | 33.8 | 76% | 38 | 30.15 | 0.0 | ||||||
| 30 | 21:15 | SW 6 | 10.00 | Fair | CLR | 41 | 33.8 | 76% | 38 | 30.15 | 0.0 | ||||||
| 30 | 20:55 | W 5 | 10.00 | Fair | CLR | 41 | 33.8 | 76% | 38 | 30.14 | 0.0 | ||||||
| 30 | 20:35 | W 5 | 10.00 | Fair | CLR | 42.8 | 33.8 | 71% | 41 | 30.13 | 0.0 | ||||||
| 30 | 19:55 | SW 6 | 10.00 | Fair | CLR | 46.4 | 35.6 | 66% | 44 | 30.12 | 0.0 | ||||||
| 30 | 19:35 | SW 5 | 10.00 | Fair | CLR | 46.4 | 35.6 | 66% | 45 | 30.12 | 0.0 | ||||||
| 30 | 19:15 | SW 6 | 10.00 | Fair | CLR | 48.2 | 33.8 | 58% | 46 | 30.11 | 0.0 | ||||||
| 30 | 18:55 | S 3 | 10.00 | Fair | CLR | 50 | 32 | 50% | 30.11 | 0.0 | |||||||
| 30 | 18:35 | Calm | 10.00 | A Few Clouds | FEW060 FEW070 | 50 | 30.2 | 47% | 30.11 | 0.0 | |||||||
| 30 | 18:15 | E 3 | 10.00 | Mostly Cloudy | FEW049 SCT060 BKN075 | 51.8 | 30.2 | 44% | 30.11 | 0.0 | |||||||
| 30 | 17:55 | Calm | 10.00 | Overcast | BKN048 BKN055 OVC075 | 51.8 | 30.2 | 44% | 30.12 | 0.0 | |||||||
| 30 | 17:35 | SE 3 | 10.00 | Overcast | BKN050 OVC055 | 50 | 32 | 50% | 30.12 | 0.0 | |||||||
| 30 | 17:15 | Calm | 10.00 | Overcast | BKN050 OVC060 | 50 | 30.2 | 47% | 30.12 | 0.0 | |||||||
| 30 | 16:55 | Calm | 10.00 | Overcast | FEW049 BKN060 OVC080 | 50 | 30.2 | 47% | 30.12 | 0.0 | |||||||
| 30 | 16:35 | Calm | 10.00 | Mostly Cloudy | FEW038 SCT043 BKN060 | 51.8 | 32 | 47% | 30.11 | 0.0 | |||||||
| 30 | 16:15 | Vrbl 5 G 12 | 10.00 | Overcast | BKN040 BKN050 OVC060 | 51.8 | 33.8 | 50% | 30.12 | 0.0 | |||||||
| 30 | 15:55 | Vrbl 6 G 13 | 10.00 | Overcast | BKN050 BKN060 OVC080 | 51.8 | 33.8 | 50% | 30.12 | 0.0 | |||||||
| 30 | 15:35 | E 8 | 10.00 | Overcast | FEW038 BKN047 OVC080 | 50 | 35.6 | 58% | 47 | 30.13 | 0.0 | ||||||
| 30 | 15:15 | SE 5 | 10.00 | Overcast | FEW037 BKN046 OVC055 | 50 | 35.6 | 58% | 49 | 30.13 | 0.0 | ||||||
| 30 | 14:55 | SE 10 G 17 | 10.00 | Mostly Cloudy | SCT055 BKN065 | 50 | 33.8 | 54% | 46 | 30.13 | 0.0 | ||||||
| 30 | 14:35 | E 12 | 10.00 | Overcast | FEW039 OVC065 | 51.8 | 33.8 | 50% | 30.13 | 0.0 | |||||||
| 30 | 14:15 | E 9 | 10.00 | Overcast | BKN040 OVC065 | 51.8 | 33.8 | 50% | 30.14 | 0.0 | |||||||
| 30 | 13:55 | E 8 | 10.00 | Overcast | BKN041 OVC050 | 50 | 33.8 | 54% | 47 | 30.14 | 0.0 | ||||||
| 30 | 13:35 | E 9 | 10.00 | Overcast | FEW030 SCT035 OVC042 | 50 | 33.8 | 54% | 47 | 30.14 | 0.0 | ||||||
| 30 | 13:15 | E 6 | 10.00 | Overcast | SCT033 OVC040 | 50 | 33.8 | 54% | 48 | 30.15 | 0.0 | ||||||
| 30 | 12:55 | Vrbl 7 G 14 | 10.00 | Overcast | SCT032 BKN041 OVC070 | 50 | 35.6 | 58% | 48 | 30.15 | 0.0 | ||||||
| 30 | 12:35 | E 9 | 10.00 | Mostly Cloudy | FEW020 SCT029 BKN070 | 48.2 | 37.4 | 66% | 45 | 30.16 | 0.0 | ||||||
| 30 | 12:15 | SE 7 G 15 | 10.00 | Mostly Cloudy | FEW020 SCT029 BKN035 | 48.2 | 37.4 | 66% | 46 | 30.16 | 0.0 | ||||||
| 30 | 11:55 | SE 8 | 10.00 | Partly Cloudy | FEW020 SCT090 | 46.4 | 37.4 | 71% | 43 | 30.17 | 0.0 | ||||||
| 30 | 11:35 | E 7 | 10.00 | Mostly Cloudy | FEW020 BKN085 | 44.6 | 37.4 | 76% | 41 | 30.18 | 0.0 | ||||||
| 30 | 11:15 | SE 7 | 10.00 | Overcast | SCT070 OVC080 | 44.6 | 37.4 | 76% | 41 | 30.18 | 0.0 | ||||||
| 30 | 10:55 | E 8 | 10.00 | Overcast | BKN060 OVC075 | 42.8 | 37.4 | 81% | 39 | 30.18 | 0.0 | ||||||
| 30 | 10:35 | E 7 | 10.00 | Overcast | OVC060 | 42.8 | 37.4 | 81% | 39 | 30.19 | 0.0 | ||||||
| 30 | 10:15 | E 7 | 10.00 | Overcast | OVC060 | 42.8 | 35.6 | 76% | 39 | 30.19 | 0.0 | ||||||
| 30 | 09:55 | E 8 | 10.00 | Overcast | OVC060 | 42.8 | 37.4 | 81% | 39 | 30.19 | 0.0 | ||||||
| 30 | 09:35 | E 8 | 10.00 | Overcast | OVC060 | 42.8 | 37.4 | 81% | 39 | 30.18 | 0.0 | ||||||
| 30 | 09:15 | E 7 | 10.00 | Overcast | OVC060 | 42.8 | 37.4 | 81% | 39 | 30.18 | 0.0 | ||||||
| 30 | 08:55 | E 8 | 10.00 | Overcast | OVC060 | 42.8 | 37.4 | 81% | 39 | 30.18 | 0.0 | ||||||
| 30 | 08:35 | E 8 | 10.00 | Light Rain | FEW043 BKN060 | 42.8 | 37.4 | 81% | 39 | 30.18 | 0.0 | ||||||
| 30 | 08:15 | NE 7 | 10.00 | Overcast | SCT030 SCT037 OVC055 | 41 | 37.4 | 87% | 37 | 30.18 | 0.0 | ||||||
| 30 | 07:55 | NE 8 | 10.00 | Overcast | BKN030 OVC044 | 41 | 35.6 | 81% | 36 | 30.18 | 0.0 | ||||||
| 30 | 07:35 | NE 10 | 10.00 | Overcast | OVC042 | 41 | 37.4 | 87% | 35 | 30.17 | 0.0 | ||||||
| 30 | 07:15 | N 12 | 10.00 | Overcast | BKN038 OVC047 | 39.2 | 35.6 | 87% | 33 | 30.16 | 0.0 | ||||||
| 30 | 06:55 | NE 10 | 10.00 | Overcast | BKN041 OVC047 | 39.2 | 35.6 | 87% | 33 | 30.16 | 0.0 | ||||||
| 30 | 06:35 | NE 12 | 10.00 | Overcast | OVC042 | 39.2 | 35.6 | 87% | 33 | 30.15 | 0.0 | ||||||
| 30 | 06:15 | NE 13 G 20 | 10.00 | Overcast | FEW032 BKN041 OVC060 | 41 | 35.6 | 81% | 34 | 30.14 | 0.0 | ||||||
| 30 | 05:55 | NE 14 | 10.00 | Unknown Precip | FEW013 SCT032 BKN041 | 39.2 | 35.6 | 87% | 32 | 30.14 | 0.0 | ||||||
| 30 | 05:35 | NE 12 | 7.00 | Light Rain | FEW016 BKN028 OVC036 | 39.2 | 37.4 | 93% | 33 | 30.14 | 0.0 | ||||||
| 30 | 05:15 | NE 9 | 10.00 | Light Rain | BKN027 OVC035 | 39.2 | 35.6 | 87% | 34 | 30.14 | 0.0 | ||||||
| 30 | 04:55 | NE 10 | 10.00 | Light Rain | OVC038 | 39.2 | 35.6 | 87% | 33 | 30.13 | 0.0 | ||||||
| 30 | 04:35 | NE 9 | 10.00 | Light Rain | BKN042 OVC050 | 41 | 33.8 | 76% | 36 | 30.13 | 0.0 | ||||||
| 30 | 04:15 | N 9 | 10.00 | Overcast | FEW037 BKN050 OVC065 | 39.2 | 33.8 | 81% | 34 | 30.13 | 0.0 | ||||||
| 30 | 03:55 | N 12 | 10.00 | Overcast | BKN060 OVC070 | 39.2 | 33.8 | 81% | 33 | 30.13 | 0.0 | ||||||
| 30 | 03:35 | N 10 | 10.00 | Overcast | FEW060 OVC075 | 39.2 | 32 | 75% | 33 | 30.13 | 0.0 | ||||||
| 30 | 03:15 | N 9 | 10.00 | Overcast | BKN075 OVC100 | 39.2 | 32 | 75% | 34 | 30.13 | 0.0 | ||||||
| 30 | 02:55 | N 9 | 10.00 | Overcast | FEW080 OVC100 | 39.2 | 32 | 75% | 34 | 30.12 | 0.0 | ||||||
| 30 | 02:35 | N 10 | 10.00 | Overcast | OVC100 | 41 | 33.8 | 76% | 35 | 30.12 | 0.0 | ||||||
| 30 | 02:15 | N 13 | 10.00 | Overcast | OVC100 | 41 | 35.6 | 81% | 34 | 30.12 | 0.0 | ||||||
| 30 | 01:55 | N 9 | 10.00 | Overcast | FEW075 OVC090 | 42.8 | 37.4 | 81% | 38 | 30.13 | 0.0 | ||||||
| 30 | 01:35 | NW 9 | 10.00 | Overcast | BKN075 OVC095 | 42.8 | 41 | 93% | 38 | 30.13 | 0.0 | ||||||
| 30 | 01:15 | SW 3 | 10.00 | Overcast | BKN075 OVC085 | 42.8 | 41 | 93% | 30.13 | 0.0 | |||||||
| 30 | 00:55 | SW 5 | 10.00 | Overcast | BKN075 OVC085 | 44.6 | 41 | 87% | 43 | 30.13 | 0.0 | ||||||
| 30 | 00:35 | W 5 | 10.00 | Overcast | OVC085 | 42.8 | 41 | 93% | 41 | 30.13 | 0.0 | ||||||
| 30 | 00:15 | W 7 | 10.00 | Overcast | SCT080 OVC090 | 44.6 | 41 | 87% | 41 | 30.13 | 0.0 | ||||||
| 29 | 23:55 | W 5 | 10.00 | Overcast | SCT080 OVC090 | 42.8 | 39.2 | 87% | 41 | 30.14 | 0.0 | ||||||
| 29 | 23:35 | Calm | 10.00 | Overcast | SCT070 OVC090 | 44.6 | 39.2 | 81% | 30.14 | 0.0 | |||||||
| 29 | 23:15 | Calm | 10.00 | Overcast | SCT055 OVC070 | 44.6 | 39.2 | 81% | 30.14 | 0.0 | |||||||
| 29 | 22:55 | SW 5 | 10.00 | Overcast | BKN055 BKN070 OVC090 | 46.4 | 39.2 | 76% | 45 | 30.14 | 0.0 | ||||||
| 29 | 22:35 | Calm | 10.00 | Overcast | FEW050 BKN065 OVC085 | 48.2 | 37.4 | 66% | 30.14 | 0.0 | |||||||
| 29 | 22:15 | W 5 | 10.00 | Overcast | SCT049 BKN065 OVC075 | 46.4 | 37.4 | 71% | 45 | 30.14 | 0.0 | ||||||
| 29 | 21:55 | W 5 | 10.00 | Overcast | FEW049 BKN060 OVC075 | 46.4 | 41 | 82% | 45 | 30.13 | 0.0 | ||||||
| 29 | 21:35 | W 5 | 10.00 | Overcast | FEW045 BKN055 OVC065 | 46.4 | 41 | 82% | 45 | 30.13 | 0.0 | ||||||
| 29 | 21:15 | Calm | 10.00 | Overcast | BKN060 OVC070 | 48.2 | 37.4 | 66% | 30.12 | 0.0 | |||||||
| 29 | 20:55 | S 5 | 10.00 | Overcast | FEW042 SCT055 OVC065 | 46.4 | 39.2 | 76% | 45 | 30.12 | 0.0 | 0.01 | |||||
| 29 | 20:35 | S 10 | 10.00 | Overcast | FEW041 SCT050 OVC065 | 46.4 | 41 | 82% | 42 | 30.11 | 0.0 | ||||||
| 29 | 20:15 | SE 5 | 10.00 | Mostly Cloudy | FEW008 SCT043 BKN050 | 46.4 | 39.2 | 76% | 45 | 30.11 | 0.0 | ||||||
| 29 | 19:55 | Vrbl 6 G 39 | 1.25 | Thunderstorm in Vicinity Rain Haze | SCT010 BKN029 OVC055 | 46.4 | 39.2 | 76% | 44 | 30.11 | 0.0 | 0.02 | |||||
| 29 | 19:35 | Calm | 10.00 | Mostly Cloudy | BKN060 BKN070 BKN095 | 50 | 35.6 | 58% | 30.08 | 0.0 | |||||||
| 29 | 19:15 | S 6 | 10.00 | A Few Clouds | FEW065 FEW100 | 51.8 | 37.4 | 58% | 30.07 | 0.0 | |||||||
| 29 | 18:55 | S 9 | 10.00 | Partly Cloudy | SCT110 | 53.6 | 37.4 | 54% | 30.06 | 0.0 | |||||||
| 29 | 18:35 | S 9 | 10.00 | Mostly Cloudy | BKN110 | 53.6 | 37.4 | 54% | 30.05 | 0.0 | |||||||
| 29 | 18:15 | S 10 G 16 | 10.00 | Mostly Cloudy | BKN110 | 55.4 | 39.2 | 55% | 30.05 | 0.0 | |||||||
| 29 | 17:55 | Vrbl 3 | 10.00 | Partly Cloudy | SCT100 | 57.2 | 33.8 | 41% | 30.05 | 0.0 | |||||||
| 29 | 17:35 | E 7 | 10.00 | Partly Cloudy | SCT095 | 57.2 | 35.6 | 44% | 30.04 | 0.0 | |||||||
| 29 | 17:15 | Calm | 10.00 | Mostly Cloudy | BKN090 BKN120 | 57.2 | 33.8 | 41% | 30.05 | 0.0 | |||||||
| 29 | 16:55 | S 6 | 10.00 | A Few Clouds | FEW090 | 57.2 | 35.6 | 44% | 30.05 | 0.0 | |||||||
| 29 | 16:35 | S 8 | 10.00 | Fair | CLR | 55.4 | 37.4 | 51% | 30.05 | 0.0 | |||||||
| 29 | 16:15 | S 9 | 10.00 | Partly Cloudy | FEW036 SCT047 SCT060 | 53.6 | 39.2 | 58% | 30.05 | 0.0 | |||||||
| 29 | 15:55 | SE 14 | 10.00 | A Few Clouds | FEW060 FEW070 | 55.4 | 39.2 | 55% | 30.06 | 0.0 | |||||||
| 29 | 15:35 | SE 18 G 25 | 10.00 | Partly Cloudy | SCT065 SCT075 | 55.4 | 39.2 | 55% | 30.05 | 0.0 | |||||||
| 29 | 15:15 | SE 21 | 10.00 | Overcast and Breezy | SCT070 OVC090 | 57.2 | 35.6 | 44% | 30.06 | 0.0 | |||||||
| 29 | 14:55 | Calm | 10.00 | Overcast | OVC095 | 57.2 | 28.4 | 33% | 30.05 | 0.0 | |||||||
| 29 | 14:35 | NW 7 | 10.00 | Mostly Cloudy | FEW075 SCT090 BKN110 | 60.8 | 30.2 | 31% | 30.06 | 0.0 | |||||||
| 29 | 14:15 | NW 6 | 10.00 | Mostly Cloudy | BKN075 BKN085 | 55.4 | 33.8 | 44% | 30.06 | 0.0 | |||||||
| Date | Time (mdt) | Wind (mph) | Vis. (mi.) | Weather | Sky Cond. | Air | Dwpt | Max. | Min. | Relative Humidity | Wind Chill (°F) | Heat Index (°F) | altimeter (in) | sea level (mb) | 1 hr | 3 hr | 6 hr |
| 6 hour | |||||||||||||||||
| Temperature (ºF) | Pressure | Precipitation (in) | |||||||||||||||